Terminal Aerodrome Forecast
Issued by NWS Paducah, KY

Home | Current Version | Previous Version | Text Only | Print | Product List | Glossary On
Versions: 1 2 3 4 5 6 7 8 9 10 11 12 13 14 15 16
000
FTUS43 KPAH 270157 AAA
TAFPAH
TAF AMD
KPAH 270157Z 2702/2724 34012G16KT P6SM OVC035
      TEMPO 2702/2706 SCT040
     FM270600 36008KT P6SM SCT025 BKN040
     FM271500 01010KT P6SM BKN025=

USA.gov is the U.S. government's official web portal to all federal, state and local government web resources and services.